KDMA/DMA METAR and TAF weather

Enter ICAO airport designator
Station Type Date Time Source
KDMA METAR 2019/02/23 16:58 UTC NOAA

KDMA 231658Z AUTO 13005KT 10SM CLR 03/M02 A3030 RMK AO2 SLP264 T00251019 $


Station Type Date Time Source
KDMA Decoded METAR 2019/02/23 16:58 UTC NOAA

Davis-Monthan Air Force Base, AZ, United States (KDMA) 32-10N 110-53W
Feb 23, 2019 - 11:58 AM EST / 2019.02.23 1658 UTC
Wind: from the SE (130 degrees) at 6 MPH (5 KT):0
Visibility: 10 mile(s):0
Sky conditions: clear
Temperature: 36.5 F (2.5 C)
Dew Point: 28.6 F (-1.9 C)
Relative Humidity: 72%
Pressure (altimeter): 30.3 in. Hg (1026 hPa)
ob: KDMA 231658Z AUTO 13005KT 10SM CLR 03/M02 A3030 RMK AO2 SLP264 T00251019
cycle: 17

Station Type Date Time Source
KDMA TAF 2019/02/23 14:09 UTC NOAA

TAF KDMA 231401Z 2314/2420 VRB06KT 9999 SKC QNH3022INS
BECMG 2319/2320 32009KT 9999 SKC QNH3020INS
BECMG 2404/2405 10009KT 9999 SKC QNH3005INS TX07/2323Z TNM03/2314Z


Example: see airport list